createdAt,value
2024-04-19T00:02:17.200Z,63.56
2024-04-19T00:04:43.836Z,63.50
2024-04-19T00:07:10.436Z,62.82
2024-04-19T00:09:46.426Z,63.03
2024-04-19T00:12:13.978Z,63.68
2024-04-19T00:14:40.848Z,63.83
2024-04-19T00:17:07.554Z,64.28
2024-04-19T00:19:34.153Z,64.02
2024-04-19T00:22:00.776Z,64.04
2024-04-19T00:24:27.391Z,64.39
2024-04-19T00:26:54.112Z,64.31
2024-04-19T00:29:40.653Z,64.40
2024-04-19T00:32:07.713Z,64.18
2024-04-19T00:34:34.562Z,64.29
2024-04-19T00:37:01.459Z,64.41
2024-04-19T00:39:28.200Z,64.41
2024-04-19T00:41:54.919Z,64.57
2024-04-19T00:44:21.671Z,64.44
2024-04-19T00:46:48.650Z,64.49
2024-04-19T00:49:32.340Z,64.51
2024-04-19T00:52:00.031Z,64.18
2024-04-19T00:54:26.757Z,63.90
2024-04-19T00:56:53.792Z,64.08
2024-04-19T00:59:20.837Z,64.14
2024-04-19T01:01:47.736Z,64.02
2024-04-19T01:04:15.140Z,63.68
2024-04-19T01:06:41.953Z,63.71
2024-04-19T01:09:08.836Z,63.67
2024-04-19T01:11:35.779Z,63.24
2024-04-19T01:14:02.491Z,63.25
2024-04-19T01:16:29.272Z,63.21
2024-04-19T01:18:56.049Z,63.33
2024-04-19T01:21:23.251Z,62.82
2024-04-19T01:23:54.724Z,62.57
2024-04-19T01:26:21.441Z,62.84
2024-04-19T01:28:48.162Z,62.74
2024-04-19T01:31:14.899Z,62.72
2024-04-19T01:33:41.672Z,62.69
2024-04-19T01:36:08.666Z,62.33
2024-04-19T01:38:47.639Z,62.42
2024-04-19T01:41:14.561Z,62.34
2024-04-19T01:43:43.546Z,62.37
2024-04-19T01:46:10.300Z,62.39
2024-04-19T01:48:37.079Z,62.44
2024-04-19T01:51:03.973Z,62.19
2024-04-19T01:53:33.102Z,61.84
2024-04-19T01:55:59.941Z,62.34
2024-04-19T01:58:41.818Z,62.51
2024-04-19T02:01:09.025Z,62.24
2024-04-19T02:03:35.967Z,62.20
2024-04-19T02:06:13.553Z,62.73
2024-04-19T02:08:40.610Z,62.79
2024-04-19T02:11:07.434Z,62.71
2024-04-19T02:13:34.492Z,62.93
2024-04-19T02:16:01.592Z,63.13
2024-04-19T02:18:28.574Z,62.98
2024-04-19T02:20:55.411Z,63.07
2024-04-19T02:23:41.982Z,62.92
2024-04-19T02:26:09.740Z,63.04
2024-04-19T02:28:57.884Z,63.10
2024-04-19T02:31:24.870Z,63.08
2024-04-19T02:33:51.682Z,63.19
2024-04-19T02:36:18.596Z,61.80
2024-04-19T02:38:45.389Z,61.50
2024-04-19T02:41:12.135Z,61.87
2024-04-19T02:43:38.873Z,61.95
2024-04-19T02:46:06.755Z,62.27
2024-04-19T02:48:34.186Z,62.05
2024-04-19T02:51:02.560Z,61.57
2024-04-19T02:53:29.281Z,61.75
2024-04-19T02:55:56.636Z,62.01
2024-04-19T02:58:23.398Z,62.60
2024-04-19T03:00:50.205Z,62.50
2024-04-19T03:03:17.195Z,62.13
2024-04-19T03:05:45.241Z,62.08
2024-04-19T03:08:11.974Z,62.36
2024-04-19T03:10:39.543Z,62.51
2024-04-19T03:13:09.480Z,62.46
2024-04-19T03:15:36.459Z,62.65
2024-04-19T03:18:05.941Z,61.43
2024-04-19T03:20:32.660Z,60.46
2024-04-19T03:22:59.372Z,60.91
2024-04-19T03:25:26.054Z,61.01
2024-04-19T03:27:53.191Z,60.75
2024-04-19T03:30:27.489Z,61.06
2024-04-19T03:32:54.535Z,60.90
2024-04-19T03:35:21.454Z,60.50
2024-04-19T03:37:48.158Z,60.37
2024-04-19T03:40:15.060Z,60.92
2024-04-19T03:42:47.144Z,61.18
2024-04-19T03:45:32.498Z,61.41
2024-04-19T03:47:59.402Z,60.92
2024-04-19T03:50:26.092Z,60.65
2024-04-19T03:52:57.959Z,60.15
2024-04-19T03:55:25.430Z,60.82
2024-04-19T03:57:52.383Z,60.95
2024-04-19T04:00:22.730Z,61.03
2024-04-19T04:02:53.821Z,60.50
2024-04-19T04:05:20.574Z,60.22
2024-04-19T04:07:47.194Z,58.75
2024-04-19T04:10:13.930Z,58.05
2024-04-19T04:12:40.802Z,57.40
2024-04-19T04:15:08.545Z,56.12
2024-04-19T04:17:35.842Z,55.62
2024-04-19T04:20:04.577Z,55.63
2024-04-19T04:22:31.187Z,55.38
2024-04-19T04:24:57.934Z,55.73
2024-04-19T04:27:24.920Z,55.50
2024-04-19T04:29:51.720Z,55.32
2024-04-19T04:32:18.477Z,55.94
2024-04-19T04:34:45.441Z,55.58
2024-04-19T04:37:12.142Z,55.57
2024-04-19T04:39:38.918Z,55.25
2024-04-19T04:42:06.443Z,55.24
2024-04-19T04:44:34.260Z,54.76
2024-04-19T04:47:01.327Z,54.29
2024-04-19T04:49:28.344Z,54.44
2024-04-19T04:51:55.175Z,54.00
2024-04-19T04:54:22.043Z,54.01
2024-04-19T04:56:48.955Z,53.56
2024-04-19T04:59:15.602Z,54.47
2024-04-19T05:01:42.307Z,53.19
2024-04-19T05:04:09.933Z,52.62
2024-04-19T05:06:37.170Z,52.17
2024-04-19T05:09:04.571Z,51.63
2024-04-19T05:11:31.409Z,51.79
2024-04-19T05:13:58.131Z,51.67
2024-04-19T05:16:24.899Z,51.63
2024-04-19T05:18:52.693Z,52.04
2024-04-19T05:21:19.562Z,52.14
2024-04-19T05:23:47.416Z,52.31
2024-04-19T05:26:14.215Z,52.25
2024-04-19T05:28:41.170Z,52.30
2024-04-19T05:31:07.858Z,52.16
2024-04-19T05:33:37.854Z,52.01
2024-04-19T05:36:05.477Z,52.21
2024-04-19T05:38:32.312Z,52.92
2024-04-19T05:40:59.056Z,52.67
2024-04-19T05:43:25.793Z,52.45
2024-04-19T05:45:53.341Z,52.61
2024-04-19T05:48:22.238Z,52.77
2024-04-19T05:50:49.415Z,53.09
2024-04-19T05:53:16.199Z,53.79
2024-04-19T05:55:45.144Z,53.70
2024-04-19T05:58:12.202Z,53.05
2024-04-19T06:00:39.442Z,52.79
2024-04-19T06:03:06.305Z,52.89
2024-04-19T06:05:33.203Z,52.54
2024-04-19T06:08:00.049Z,53.02
2024-04-19T06:10:26.884Z,53.20
2024-04-19T06:12:54.386Z,53.66
2024-04-19T06:15:21.332Z,53.72
2024-04-19T06:17:49.503Z,53.76
2024-04-19T06:20:16.405Z,54.81
2024-04-19T06:22:43.082Z,58.60
2024-04-19T06:25:10.094Z,58.49
2024-04-19T06:27:36.751Z,57.14
2024-04-19T06:30:03.989Z,56.18
2024-04-19T06:32:30.750Z,54.80
2024-04-19T06:34:57.664Z,53.97
2024-04-19T06:37:25.431Z,53.76
2024-04-19T06:39:59.460Z,53.79
2024-04-19T06:42:32.333Z,53.12
2024-04-19T06:44:58.990Z,52.96
2024-04-19T06:47:25.674Z,52.58
2024-04-19T06:49:52.343Z,52.93
2024-04-19T06:52:19.075Z,53.34
2024-04-19T06:54:45.868Z,53.52
2024-04-19T06:57:15.095Z,53.72
2024-04-19T06:59:43.329Z,53.52
2024-04-19T07:02:10.410Z,53.81
2024-04-19T07:04:37.276Z,53.25
2024-04-19T07:07:04.416Z,53.27
2024-04-19T07:09:31.527Z,53.09
2024-04-19T07:11:58.250Z,53.07
2024-04-19T07:14:25.273Z,53.17
2024-04-19T07:16:55.735Z,53.15
2024-04-19T07:19:22.876Z,53.18
2024-04-19T07:21:49.584Z,53.44
2024-04-19T07:24:16.455Z,52.96
2024-04-19T07:26:43.370Z,52.87
2024-04-19T07:29:10.327Z,52.73
2024-04-19T07:31:37.157Z,52.85
2024-04-19T07:34:03.810Z,52.76
2024-04-19T07:36:31.006Z,52.64
2024-04-19T07:38:57.811Z,52.60
2024-04-19T07:41:24.520Z,52.36
2024-04-19T07:43:55.834Z,52.48
2024-04-19T07:46:27.533Z,52.20
2024-04-19T07:48:54.228Z,51.69
2024-04-19T07:51:20.922Z,51.51
2024-04-19T07:53:47.644Z,51.29
2024-04-19T07:56:14.797Z,51.29
2024-04-19T07:58:41.529Z,51.03
2024-04-19T08:01:08.428Z,50.99
2024-04-19T08:03:36.725Z,50.94
2024-04-19T08:06:04.410Z,50.93
2024-04-19T08:08:31.177Z,50.96
2024-04-19T08:10:57.790Z,50.85
2024-04-19T08:13:25.592Z,51.07
2024-04-19T08:15:52.423Z,51.32
2024-04-19T08:18:19.353Z,51.12
2024-04-19T08:20:46.021Z,50.82
2024-04-19T08:23:14.032Z,50.53
2024-04-19T08:25:41.538Z,50.22
2024-04-19T08:28:08.247Z,50.55
2024-04-19T08:30:34.922Z,50.68
2024-04-19T08:33:01.756Z,51.04
2024-04-19T08:35:28.464Z,50.87
2024-04-19T08:37:55.038Z,50.24
2024-04-19T08:40:22.510Z,50.04
2024-04-19T08:42:49.323Z,49.95
2024-04-19T08:45:17.328Z,49.89
2024-04-19T08:47:47.568Z,49.94
2024-04-19T08:50:17.150Z,50.06
2024-04-19T08:53:08.996Z,49.76
2024-04-19T08:55:33.888Z,49.96
2024-04-19T08:58:00.926Z,49.85
2024-04-19T09:00:27.764Z,49.75
2024-04-19T09:02:54.725Z,48.95
2024-04-19T09:05:21.779Z,49.07
2024-04-19T09:07:48.751Z,49.25
2024-04-19T09:10:21.399Z,49.90
2024-04-19T09:12:48.226Z,49.34
2024-04-19T09:15:15.298Z,49.08
2024-04-19T09:17:42.273Z,49.62
2024-04-19T09:20:09.979Z,49.88
2024-04-19T09:22:36.870Z,48.89
2024-04-19T09:25:04.504Z,48.06
2024-04-19T09:27:32.459Z,48.40
2024-04-19T09:30:02.269Z,48.45
2024-04-19T09:32:30.007Z,48.68
2024-04-19T09:34:57.061Z,48.81
2024-04-19T09:37:24.280Z,48.91
2024-04-19T09:39:53.839Z,49.09
2024-04-19T09:42:20.852Z,48.76
2024-04-19T09:44:51.767Z,48.30
2024-04-19T09:47:19.415Z,48.24
2024-04-19T09:49:47.287Z,48.46
2024-04-19T09:52:22.118Z,48.32
2024-04-19T09:55:02.589Z,49.07
2024-04-19T09:57:31.098Z,48.97
2024-04-19T09:59:58.931Z,49.07
2024-04-19T10:02:31.605Z,49.04
2024-04-19T10:05:04.027Z,47.96
2024-04-19T10:07:31.777Z,47.31
2024-04-19T10:10:00.314Z,47.00
2024-04-19T10:12:28.029Z,46.85
2024-04-19T10:14:54.657Z,46.57
2024-04-19T10:17:21.505Z,47.31
2024-04-19T10:19:52.962Z,47.70
2024-04-19T10:22:23.287Z,48.30
2024-04-19T10:25:01.701Z,48.85
2024-04-19T10:27:33.718Z,48.59
2024-04-19T10:30:01.498Z,48.45
2024-04-19T10:32:29.650Z,48.16
2024-04-19T10:34:57.178Z,48.07
2024-04-19T10:37:23.891Z,48.27
2024-04-19T10:39:50.675Z,48.20
2024-04-19T10:42:22.198Z,47.83
2024-04-19T10:44:49.959Z,47.93
2024-04-19T10:47:18.034Z,48.02
2024-04-19T10:49:45.364Z,48.15
2024-04-19T10:52:12.374Z,46.80
2024-04-19T10:54:39.105Z,46.38
2024-04-19T10:57:05.952Z,45.69
2024-04-19T10:59:32.936Z,45.13
2024-04-19T11:02:02.937Z,44.73
2024-04-19T11:04:30.108Z,44.07
2024-04-19T11:06:57.048Z,44.23
2024-04-19T11:09:24.331Z,43.94
2024-04-19T11:11:51.187Z,43.31
2024-04-19T11:14:20.265Z,42.70
2024-04-19T11:16:47.395Z,42.61
2024-04-19T11:19:17.556Z,42.44
2024-04-19T11:21:45.634Z,42.07
2024-04-19T11:24:12.384Z,42.52
2024-04-19T11:26:39.123Z,42.88
2024-04-19T11:29:07.217Z,42.78
2024-04-19T11:31:35.570Z,42.66
2024-04-19T11:34:02.520Z,42.91
2024-04-19T11:36:29.610Z,42.58
2024-04-19T11:38:57.080Z,42.30
2024-04-19T11:41:23.891Z,42.68
2024-04-19T11:43:50.486Z,42.01
2024-04-19T11:46:25.952Z,42.01
2024-04-19T11:48:52.786Z,42.20
2024-04-19T11:51:20.486Z,40.27
2024-04-19T11:53:47.290Z,37.25
2024-04-19T11:56:14.297Z,35.86
2024-04-19T11:58:41.192Z,35.53
2024-04-19T12:01:08.125Z,35.39
2024-04-19T12:03:35.288Z,35.97
2024-04-19T12:06:03.447Z,35.53
2024-04-19T12:08:30.246Z,35.01
2024-04-19T12:10:57.384Z,34.92
2024-04-19T12:16:29.749Z,35.37
2024-04-19T12:18:40.964Z,35.10
2024-04-19T12:21:08.724Z,34.71
2024-04-19T12:23:35.930Z,34.26
2024-04-19T12:26:03.351Z,34.02
2024-04-19T12:28:30.508Z,33.62
2024-04-19T12:30:58.066Z,32.83
2024-04-19T12:33:24.846Z,32.12
2024-04-19T12:35:51.572Z,32.00
2024-04-19T12:38:18.418Z,32.19
2024-04-19T12:40:45.153Z,31.74
2024-04-19T12:43:12.191Z,31.79
2024-04-19T12:45:38.978Z,31.77
2024-04-19T12:48:08.048Z,30.65
2024-04-19T12:50:38.139Z,30.31
2024-04-19T12:53:05.684Z,30.35
2024-04-19T12:55:33.176Z,29.36
2024-04-19T12:58:00.844Z,29.58
2024-04-19T13:00:29.245Z,29.64
2024-04-19T13:02:57.305Z,29.33
2024-04-19T13:05:24.634Z,29.40
2024-04-19T13:07:51.390Z,29.40
2024-04-19T13:10:22.835Z,29.13
2024-04-19T13:12:49.772Z,28.40
2024-04-19T13:15:16.918Z,28.44
2024-04-19T13:17:44.397Z,28.54
2024-04-19T13:20:11.366Z,29.08
2024-04-19T13:22:38.091Z,29.15
2024-04-19T13:25:05.925Z,29.14
2024-04-19T13:27:32.761Z,28.80
2024-04-19T13:30:00.587Z,28.78
2024-04-19T13:32:27.483Z,28.99
2024-04-19T13:34:54.166Z,29.29
2024-04-19T13:37:24.346Z,29.67
2024-04-19T13:39:51.144Z,29.24
2024-04-19T13:42:18.155Z,28.55
2024-04-19T13:44:44.968Z,28.29
2024-04-19T13:47:13.406Z,27.91
2024-04-19T13:49:41.487Z,27.56
2024-04-19T13:52:08.974Z,27.92
2024-04-19T13:54:35.740Z,27.77
2024-04-19T13:57:02.883Z,27.77
2024-04-19T13:59:29.714Z,28.37
2024-04-19T14:01:56.940Z,27.54
2024-04-19T14:04:23.853Z,27.06
2024-04-19T14:06:50.806Z,26.90
2024-04-19T14:09:17.588Z,27.00
2024-04-19T14:11:45.804Z,27.79
2024-04-19T14:14:12.524Z,27.39
2024-04-19T14:16:39.474Z,26.84
2024-04-19T14:19:06.239Z,26.41
2024-04-19T14:21:33.145Z,26.46
2024-04-19T14:23:59.857Z,26.22
2024-04-19T14:26:26.532Z,25.99
2024-04-19T14:28:53.245Z,25.84
2024-04-19T14:31:20.011Z,25.99
2024-04-19T14:33:46.856Z,25.84
2024-04-19T14:36:13.665Z,26.04
2024-04-19T14:38:40.817Z,25.47
2024-04-19T14:41:08.490Z,25.78
2024-04-19T14:43:35.558Z,25.65
2024-04-19T14:46:02.492Z,25.40
2024-04-19T14:48:29.641Z,24.92
2024-04-19T14:50:56.562Z,25.39
2024-04-19T14:53:23.205Z,25.02
2024-04-19T14:55:49.932Z,25.52
2024-04-19T14:58:16.774Z,24.59
2024-04-19T15:00:43.706Z,24.59
2024-04-19T15:03:10.585Z,24.48
2024-04-19T15:05:37.296Z,24.65
2024-04-19T15:08:10.211Z,25.31
2024-04-19T15:10:37.334Z,25.07
2024-04-19T15:13:04.808Z,25.09
2024-04-19T15:15:31.795Z,25.61
2024-04-19T15:17:59.871Z,24.64
2024-04-19T15:20:26.647Z,24.16
2024-04-19T15:22:55.256Z,24.26
2024-04-19T15:25:21.997Z,24.02
2024-04-19T15:27:48.749Z,23.20
2024-04-19T15:30:15.756Z,23.08
2024-04-19T15:32:43.402Z,23.90
2024-04-19T15:35:11.906Z,24.07
2024-04-19T15:37:38.740Z,24.00
2024-04-19T15:40:06.841Z,23.92
2024-04-19T15:42:36.713Z,24.57
2024-04-19T15:45:04.413Z,23.90
2024-04-19T15:47:31.294Z,24.23
2024-04-19T15:49:58.086Z,24.28
2024-04-19T15:52:24.807Z,23.42
2024-04-19T15:54:53.486Z,23.27
2024-04-19T15:57:20.461Z,23.02
2024-04-19T15:59:47.192Z,23.57
2024-04-19T16:02:14.576Z,23.47
2024-04-19T16:04:41.392Z,23.26
2024-04-19T16:07:08.244Z,23.23
2024-04-19T16:09:35.229Z,23.17
2024-04-19T16:12:02.007Z,23.33
2024-04-19T16:14:28.800Z,24.08
2024-04-19T16:16:55.636Z,24.09
2024-04-19T16:19:24.308Z,24.90
2024-04-19T16:21:50.931Z,25.00
2024-04-19T16:24:17.595Z,25.06
2024-04-19T16:26:44.304Z,25.36
2024-04-19T16:29:11.459Z,25.97
2024-04-19T16:31:38.543Z,26.12
2024-04-19T16:34:05.310Z,27.25
2024-04-19T16:36:32.202Z,27.44
2024-04-19T16:38:59.013Z,28.01
2024-04-19T16:41:25.753Z,28.40
2024-04-19T16:43:52.488Z,28.96
2024-04-19T16:46:19.235Z,29.42
2024-04-19T16:48:46.001Z,29.62
2024-04-19T16:51:16.179Z,30.49
2024-04-19T16:53:43.308Z,30.70
2024-04-19T16:56:10.079Z,30.56
2024-04-19T16:58:36.825Z,31.25
2024-04-19T17:01:03.664Z,31.48
2024-04-19T17:03:30.788Z,30.91
2024-04-19T17:05:57.657Z,31.68
2024-04-19T17:08:24.607Z,31.56
2024-04-19T17:10:51.447Z,32.81
2024-04-19T17:13:18.212Z,33.54
2024-04-19T17:15:45.104Z,33.93
2024-04-19T17:18:12.211Z,33.65
2024-04-19T17:20:41.356Z,33.93
2024-04-19T17:23:08.440Z,34.31
2024-04-19T17:25:35.166Z,34.49
2024-04-19T17:28:01.953Z,34.10
2024-04-19T17:30:28.972Z,34.73
2024-04-19T17:32:55.995Z,33.98
2024-04-19T17:35:22.955Z,35.36
2024-04-19T17:37:49.573Z,34.54
2024-04-19T17:40:16.434Z,35.23
2024-04-19T17:42:43.077Z,35.73
2024-04-19T17:45:09.801Z,36.22
2024-04-19T17:47:36.640Z,36.03
2024-04-19T17:50:04.957Z,37.61
2024-04-19T17:52:32.583Z,37.70
2024-04-19T17:54:59.374Z,36.72
2024-04-19T17:57:28.248Z,36.40
2024-04-19T17:59:55.046Z,37.66
2024-04-19T18:02:22.563Z,37.17
2024-04-19T18:04:49.399Z,36.56
2024-04-19T18:07:16.116Z,36.13
2024-04-19T18:09:42.866Z,36.17
2024-04-19T18:12:09.682Z,36.28
2024-04-19T18:14:36.413Z,35.96
2024-04-19T18:17:03.318Z,36.69
2024-04-19T18:19:30.227Z,37.01
2024-04-19T18:21:57.413Z,37.14
2024-04-19T18:24:28.110Z,36.66
2024-04-19T18:26:55.478Z,36.78
2024-04-19T18:29:25.557Z,37.99
2024-04-19T18:31:52.760Z,38.14
2024-04-19T18:34:21.307Z,37.80
2024-04-19T18:36:48.514Z,38.45
2024-04-19T18:39:16.300Z,39.05
2024-04-19T18:41:44.867Z,39.08
2024-04-19T18:44:12.031Z,39.21
2024-04-19T18:46:38.881Z,38.97
2024-04-19T18:49:09.475Z,39.15
2024-04-19T18:51:36.413Z,38.63
2024-04-19T18:54:03.408Z,38.84
2024-04-19T18:56:30.159Z,39.24
2024-04-19T18:58:56.810Z,39.25
2024-04-19T19:01:23.540Z,39.55
2024-04-19T19:03:50.542Z,39.05
2024-04-19T19:06:17.820Z,38.66
2024-04-19T19:08:44.544Z,39.07
2024-04-19T19:11:15.032Z,39.37
2024-04-19T19:13:44.571Z,38.97
2024-04-19T19:16:11.358Z,38.54
2024-04-19T19:18:38.305Z,38.26
2024-04-19T19:21:05.609Z,38.48
2024-04-19T19:23:32.338Z,38.73
2024-04-19T19:26:04.435Z,39.26
2024-04-19T19:28:31.480Z,39.24
2024-04-19T19:30:58.981Z,39.23
2024-04-19T19:33:26.268Z,39.33
2024-04-19T19:35:56.392Z,39.51
2024-04-19T19:38:23.884Z,39.08
2024-04-19T19:40:50.589Z,39.37
2024-04-19T19:43:19.674Z,39.55
2024-04-19T19:45:55.209Z,39.95
2024-04-19T19:48:22.004Z,40.29
2024-04-19T19:50:56.298Z,40.40
2024-04-19T19:53:22.948Z,40.43
2024-04-19T19:55:49.777Z,40.42
2024-04-19T19:58:16.510Z,41.04
2024-04-19T20:01:02.303Z,41.52
2024-04-19T20:03:47.849Z,41.80
2024-04-19T20:06:14.940Z,42.21
2024-04-19T20:08:41.757Z,42.19
2024-04-19T20:11:08.443Z,41.90
2024-04-19T20:13:35.243Z,41.76
2024-04-19T20:16:04.325Z,41.68
2024-04-19T20:18:31.410Z,42.23
2024-04-19T20:20:58.678Z,42.86
2024-04-19T20:23:25.588Z,43.08
2024-04-19T20:25:52.262Z,43.35
2024-04-19T20:28:19.084Z,43.84
2024-04-19T20:30:45.980Z,43.50
2024-04-19T20:33:12.794Z,43.22
2024-04-19T20:35:39.611Z,43.44
2024-04-19T20:38:06.474Z,43.81
2024-04-19T20:40:33.319Z,43.17
2024-04-19T20:43:14.606Z,44.00
2024-04-19T20:45:47.136Z,43.49
2024-04-19T20:48:15.923Z,43.74
2024-04-19T20:50:42.899Z,43.79
2024-04-19T20:53:09.525Z,43.85
2024-04-19T20:55:41.833Z,43.76
2024-04-19T20:58:08.504Z,44.16
2024-04-19T21:00:38.607Z,44.28
2024-04-19T21:03:05.697Z,44.67
2024-04-19T21:05:32.687Z,45.01
2024-04-19T21:07:59.353Z,44.56
2024-04-19T21:10:26.107Z,44.15
2024-04-19T21:12:53.667Z,44.69
2024-04-19T21:15:20.523Z,44.83
2024-04-19T21:17:47.173Z,45.10
2024-04-19T21:20:13.838Z,44.80
2024-04-19T21:22:40.471Z,44.22
2024-04-19T21:25:07.453Z,44.31
2024-04-19T21:27:34.977Z,44.43
2024-04-19T21:30:02.055Z,44.75
2024-04-19T21:32:31.865Z,44.84
2024-04-19T21:34:58.593Z,45.12
2024-04-19T21:37:25.371Z,45.41
2024-04-19T21:39:55.309Z,45.49
2024-04-19T21:42:23.184Z,46.14
2024-04-19T21:44:54.467Z,45.98
2024-04-19T21:47:21.395Z,45.54
2024-04-19T21:49:48.099Z,45.30
2024-04-19T21:52:17.945Z,45.32
2024-04-19T21:54:44.881Z,45.82
2024-04-19T21:57:11.571Z,45.52
2024-04-19T21:59:39.406Z,44.55
2024-04-19T22:02:06.151Z,44.10
2024-04-19T22:04:33.066Z,44.16
2024-04-19T22:07:00.106Z,44.76
2024-04-19T22:09:27.625Z,44.71
2024-04-19T22:11:54.484Z,44.55
2024-04-19T22:14:21.329Z,44.36
2024-04-19T22:16:48.213Z,44.99
2024-04-19T22:19:15.227Z,45.50
2024-04-19T22:21:42.184Z,45.02
2024-04-19T22:24:09.128Z,45.22
2024-04-19T22:26:36.144Z,45.27
2024-04-19T22:29:03.092Z,44.93
2024-04-19T22:31:29.933Z,45.56
2024-04-19T22:33:57.035Z,45.11
2024-04-19T22:36:24.770Z,45.16
2024-04-19T22:38:51.923Z,45.95
2024-04-19T22:41:19.034Z,46.20
2024-04-19T22:43:45.890Z,46.10
2024-04-19T22:46:12.929Z,45.23
2024-04-19T22:48:41.056Z,45.48
2024-04-19T22:51:08.323Z,45.58
2024-04-19T22:53:35.329Z,45.85
2024-04-19T22:56:02.471Z,45.61
2024-04-19T22:58:29.307Z,44.62
2024-04-19T23:01:07.687Z,43.91
2024-04-19T23:03:35.262Z,43.60
2024-04-19T23:06:09.665Z,44.50
2024-04-19T23:08:36.851Z,45.19
2024-04-19T23:11:04.832Z,45.47
2024-04-19T23:13:32.782Z,45.81
2024-04-19T23:15:59.657Z,45.29
2024-04-19T23:18:26.675Z,45.76
2024-04-19T23:21:01.218Z,45.68
2024-04-19T23:23:28.637Z,45.12
2024-04-19T23:26:06.536Z,45.84
2024-04-19T23:28:33.873Z,46.31
2024-04-19T23:31:01.409Z,46.45
2024-04-19T23:33:30.504Z,45.90
2024-04-19T23:36:01.314Z,46.05
2024-04-19T23:38:28.418Z,46.08
2024-04-19T23:40:55.622Z,46.28
2024-04-19T23:43:22.512Z,46.36
2024-04-19T23:45:49.620Z,46.53
2024-04-19T23:48:16.921Z,46.88
2024-04-19T23:50:43.877Z,46.65
2024-04-19T23:53:10.711Z,45.87
2024-04-19T23:55:37.749Z,46.06
2024-04-19T23:58:04.695Z,46.18
